createdAt,value
2018-07-26T00:00:00.262Z,23.40
2018-07-26T00:00:31.974Z,23.40
2018-07-26T00:01:03.729Z,23.40
2018-07-26T00:01:35.446Z,23.40
2018-07-26T00:02:07.153Z,23.40
2018-07-26T00:02:38.877Z,23.40
2018-07-26T00:03:10.590Z,23.40
2018-07-26T00:03:42.315Z,23.30
2018-07-26T00:04:14.030Z,23.20
2018-07-26T00:04:45.736Z,23.20
2018-07-26T00:05:17.477Z,23.10
2018-07-26T00:05:49.202Z,23.10
2018-07-26T00:06:20.909Z,23.00
2018-07-26T00:06:52.641Z,22.90
2018-07-26T00:07:24.354Z,22.90
2018-07-26T00:07:56.073Z,23.10
2018-07-26T00:08:27.778Z,23.10
2018-07-26T00:08:59.498Z,23.00
2018-07-26T00:09:31.265Z,23.00
2018-07-26T00:10:02.948Z,23.10
2018-07-26T00:10:34.660Z,23.10
2018-07-26T00:11:06.404Z,23.00
2018-07-26T00:11:38.102Z,23.10
2018-07-26T00:12:09.830Z,23.10
2018-07-26T00:12:41.546Z,23.10
2018-07-26T00:13:13.276Z,23.20
2018-07-26T00:13:44.998Z,23.10
2018-07-26T00:14:16.718Z,23.10
2018-07-26T00:14:48.429Z,23.20
2018-07-26T00:15:20.146Z,23.20
2018-07-26T00:15:51.901Z,23.20
2018-07-26T00:16:23.593Z,23.20
2018-07-26T00:16:55.314Z,23.10
2018-07-26T00:17:27.025Z,23.10
2018-07-26T00:17:58.779Z,23.10
2018-07-26T00:18:30.488Z,23.00
2018-07-26T00:19:02.218Z,22.90
2018-07-26T00:19:33.979Z,22.80
2018-07-26T00:20:05.661Z,22.80
2018-07-26T00:20:37.378Z,22.90
2018-07-26T00:21:09.080Z,22.90
2018-07-26T00:21:40.811Z,22.90
2018-07-26T00:22:12.962Z,23.00
2018-07-26T00:22:44.613Z,23.10
2018-07-26T00:23:16.319Z,23.10
2018-07-26T00:23:48.074Z,23.10
2018-07-26T00:24:19.760Z,23.10
2018-07-26T00:24:51.484Z,23.10
2018-07-26T00:25:23.195Z,23.20
2018-07-26T00:25:54.909Z,23.20
2018-07-26T00:26:26.709Z,23.20
2018-07-26T00:26:58.426Z,23.20
2018-07-26T00:27:30.245Z,23.10
2018-07-26T00:28:01.910Z,23.10
2018-07-26T00:28:33.646Z,23.10
2018-07-26T00:29:05.357Z,23.10
2018-07-26T00:29:37.102Z,23.10
2018-07-26T00:30:08.799Z,23.10
2018-07-26T00:30:40.510Z,23.10
2018-07-26T00:31:12.226Z,23.20
2018-07-26T00:31:43.945Z,23.20
2018-07-26T00:32:15.662Z,23.30
2018-07-26T00:32:47.378Z,23.30
2018-07-26T00:33:19.085Z,23.30
2018-07-26T00:33:50.802Z,23.30
2018-07-26T00:34:22.515Z,23.30
2018-07-26T00:34:54.245Z,23.30
2018-07-26T00:35:25.975Z,23.30
2018-07-26T00:35:57.693Z,23.30
2018-07-26T00:36:29.402Z,23.30
2018-07-26T00:37:01.110Z,23.20
2018-07-26T00:37:32.813Z,23.20
2018-07-26T00:38:04.543Z,23.30
2018-07-26T00:38:36.261Z,23.40
2018-07-26T00:39:07.963Z,23.40
2018-07-26T00:39:39.670Z,23.50
2018-07-26T00:40:11.433Z,23.50
2018-07-26T00:40:43.136Z,23.50
2018-07-26T00:41:14.873Z,23.40
2018-07-26T00:41:46.561Z,23.40
2018-07-26T00:42:18.292Z,23.50
2018-07-26T00:42:50.019Z,23.50
2018-07-26T00:43:21.737Z,23.50
2018-07-26T00:43:53.458Z,23.50
2018-07-26T00:44:25.256Z,23.40
2018-07-26T00:44:56.962Z,23.50
2018-07-26T00:45:28.699Z,23.50
2018-07-26T00:46:00.401Z,23.50
2018-07-26T00:46:32.134Z,23.50
2018-07-26T00:47:03.858Z,23.50
2018-07-26T00:47:35.609Z,23.50
2018-07-26T00:48:07.310Z,23.50
2018-07-26T00:48:39.061Z,23.50
2018-07-26T00:49:10.745Z,23.40
2018-07-26T00:49:42.478Z,23.40
2018-07-26T00:50:14.273Z,23.30
2018-07-26T00:50:45.961Z,23.30
2018-07-26T00:51:17.739Z,23.20
2018-07-26T00:51:49.503Z,23.20
2018-07-26T00:52:53.287Z,23.30
2018-07-26T00:53:25.043Z,23.30
2018-07-26T00:53:56.820Z,23.30
2018-07-26T00:54:28.579Z,23.30
2018-07-26T00:55:00.354Z,23.30
2018-07-26T00:55:32.081Z,23.30
2018-07-26T00:56:03.881Z,23.40
2018-07-26T00:56:35.642Z,23.40
2018-07-26T00:57:07.423Z,23.30
2018-07-26T00:57:39.150Z,23.30
2018-07-26T00:58:10.900Z,23.30
2018-07-26T00:58:42.675Z,23.20
2018-07-26T00:59:14.462Z,23.20
2018-07-26T00:59:46.268Z,23.20
2018-07-26T01:00:18.021Z,23.20
2018-07-26T01:00:49.814Z,23.10
2018-07-26T01:01:21.558Z,23.10
2018-07-26T01:01:53.345Z,23.00
2018-07-26T01:02:25.093Z,22.90
2018-07-26T01:02:56.789Z,22.90
2018-07-26T01:03:28.548Z,22.80
2018-07-26T01:04:00.284Z,22.90
2018-07-26T01:04:32.059Z,22.80
2018-07-26T01:05:03.820Z,22.80
2018-07-26T01:05:35.569Z,22.80
2018-07-26T01:06:07.279Z,22.80
2018-07-26T01:06:39.018Z,22.70
2018-07-26T01:07:10.759Z,22.70
2018-07-26T01:07:42.625Z,22.70
2018-07-26T01:08:14.370Z,22.70
2018-07-26T01:08:46.099Z,22.60
2018-07-26T01:09:17.819Z,22.60
2018-07-26T01:09:49.529Z,22.60
2018-07-26T01:10:21.246Z,22.60
2018-07-26T01:10:52.991Z,22.60
2018-07-26T01:11:24.697Z,22.60
2018-07-26T01:11:56.455Z,22.60
2018-07-26T01:12:28.212Z,22.60
2018-07-26T01:12:59.971Z,22.60
2018-07-26T01:13:31.811Z,22.60
2018-07-26T01:14:03.616Z,22.50
2018-07-26T01:14:35.371Z,22.50
2018-07-26T01:15:07.086Z,22.50
2018-07-26T01:15:38.873Z,22.50
2018-07-26T01:16:10.726Z,22.50
2018-07-26T01:16:42.444Z,22.50
2018-07-26T01:17:14.199Z,22.40
2018-07-26T01:17:45.982Z,22.40
2018-07-26T01:18:17.701Z,22.40
2018-07-26T01:18:49.447Z,22.40
2018-07-26T01:19:21.166Z,22.50
2018-07-26T01:19:52.932Z,22.50
2018-07-26T01:20:24.704Z,22.50
2018-07-26T01:20:56.487Z,22.50
2018-07-26T01:21:28.229Z,22.50
2018-07-26T01:21:59.940Z,22.50
2018-07-26T01:22:31.664Z,22.40
2018-07-26T01:23:03.369Z,22.40
2018-07-26T01:23:35.089Z,22.30
2018-07-26T01:24:06.831Z,22.30
2018-07-26T01:24:38.546Z,22.30
2018-07-26T01:25:10.296Z,22.30
2018-07-26T01:25:42.069Z,22.30
2018-07-26T01:26:13.778Z,22.30
2018-07-26T01:26:45.554Z,22.20
2018-07-26T01:27:17.301Z,22.30
2018-07-26T01:27:49.070Z,22.30
2018-07-26T01:28:20.846Z,22.30
2018-07-26T01:28:52.578Z,22.30
2018-07-26T01:29:24.338Z,22.30
2018-07-26T01:29:56.049Z,22.20
2018-07-26T01:30:27.824Z,22.20
2018-07-26T01:30:59.521Z,22.20
2018-07-26T01:31:31.279Z,22.20
2018-07-26T01:32:03.038Z,22.20
2018-07-26T01:32:34.769Z,22.20
2018-07-26T01:33:06.549Z,22.20
2018-07-26T01:33:38.336Z,22.10
2018-07-26T01:34:10.048Z,22.10
2018-07-26T01:34:41.834Z,22.10
2018-07-26T01:35:13.620Z,22.10
2018-07-26T01:35:45.393Z,22.10
2018-07-26T01:36:17.196Z,22.10
2018-07-26T01:36:49.095Z,22.10
2018-07-26T01:37:20.892Z,22.10
2018-07-26T01:37:52.696Z,22.20
2018-07-26T01:38:24.442Z,22.20
2018-07-26T01:38:56.214Z,22.20
2018-07-26T01:39:28.546Z,22.20
2018-07-26T01:40:00.675Z,22.30
2018-07-26T01:40:32.824Z,22.30
2018-07-26T01:41:04.638Z,22.40
2018-07-26T01:41:36.378Z,22.40
2018-07-26T01:42:08.108Z,22.50
2018-07-26T01:42:39.893Z,22.50
2018-07-26T01:43:11.700Z,22.60
2018-07-26T01:43:43.401Z,22.60
2018-07-26T01:44:15.120Z,22.60
2018-07-26T01:44:46.834Z,22.70
2018-07-26T01:45:18.533Z,22.70
2018-07-26T01:45:50.268Z,22.70
2018-07-26T01:46:21.980Z,22.70
2018-07-26T01:46:53.705Z,22.60
2018-07-26T01:47:25.420Z,22.60
2018-07-26T01:47:57.137Z,22.60
2018-07-26T01:48:28.869Z,22.60
2018-07-26T01:49:00.582Z,22.50
2018-07-26T01:49:32.277Z,22.50
2018-07-26T01:50:04.102Z,22.50
2018-07-26T01:50:35.778Z,22.50
2018-07-26T01:51:07.491Z,22.50
2018-07-26T01:51:39.210Z,22.50
2018-07-26T01:52:10.928Z,22.50
2018-07-26T01:52:42.664Z,22.50
2018-07-26T01:53:14.378Z,22.50
2018-07-26T01:53:46.087Z,22.50
2018-07-26T01:54:17.825Z,22.50
2018-07-26T01:54:49.550Z,22.50
2018-07-26T01:55:21.262Z,22.40
2018-07-26T01:55:52.982Z,22.40
2018-07-26T01:56:24.688Z,22.40
2018-07-26T01:56:56.407Z,22.40
2018-07-26T01:57:28.116Z,22.40
2018-07-26T01:57:59.813Z,22.40
2018-07-26T01:58:31.536Z,22.50
2018-07-26T01:59:03.239Z,22.50
2018-07-26T01:59:34.981Z,22.50
2018-07-26T02:00:06.714Z,22.50
2018-07-26T02:00:38.481Z,22.50
2018-07-26T02:01:10.154Z,22.50
2018-07-26T02:01:41.924Z,22.40
2018-07-26T02:02:13.571Z,22.40
2018-07-26T02:02:45.295Z,22.30
2018-07-26T02:03:17.015Z,22.30
2018-07-26T02:03:48.709Z,22.30
2018-07-26T02:04:20.423Z,22.30
2018-07-26T02:04:52.181Z,22.30
2018-07-26T02:05:23.892Z,22.30
2018-07-26T02:05:55.614Z,22.30
2018-07-26T02:06:27.334Z,22.30
2018-07-26T02:06:59.104Z,22.30
2018-07-26T02:07:30.825Z,22.30
2018-07-26T02:08:02.533Z,22.40
2018-07-26T02:08:34.278Z,22.40
2018-07-26T02:09:05.971Z,22.40
2018-07-26T02:09:37.717Z,22.40
2018-07-26T02:10:09.448Z,22.40
2018-07-26T02:10:41.199Z,22.40
2018-07-26T02:11:12.878Z,22.50
2018-07-26T02:11:44.617Z,22.50
2018-07-26T02:12:16.379Z,22.50
2018-07-26T02:12:48.093Z,22.50
2018-07-26T02:13:19.805Z,22.50
2018-07-26T02:13:51.519Z,22.50
2018-07-26T02:14:23.231Z,22.50
2018-07-26T02:14:54.934Z,22.50
2018-07-26T02:15:26.666Z,22.60
2018-07-26T02:15:58.383Z,22.70
2018-07-26T02:16:30.085Z,22.80
2018-07-26T02:17:01.807Z,22.90
2018-07-26T02:17:33.521Z,23.00
2018-07-26T02:18:05.226Z,23.10
2018-07-26T02:18:36.963Z,23.20
2018-07-26T02:19:08.675Z,23.20
2018-07-26T02:19:40.378Z,23.20
2018-07-26T02:20:12.089Z,23.10
2018-07-26T02:20:43.799Z,23.10
2018-07-26T02:21:15.526Z,23.20
2018-07-26T02:21:47.264Z,23.20
2018-07-26T02:22:18.965Z,23.20
2018-07-26T02:22:50.673Z,23.30
2018-07-26T02:23:22.381Z,23.20
2018-07-26T02:23:54.107Z,23.20
2018-07-26T02:24:25.830Z,23.10
2018-07-26T02:24:57.525Z,23.00
2018-07-26T02:25:29.238Z,22.90
2018-07-26T02:26:00.949Z,22.90
2018-07-26T02:26:32.679Z,22.90
2018-07-26T02:27:04.455Z,22.90
2018-07-26T02:27:36.168Z,23.00
2018-07-26T02:28:07.881Z,23.00
2018-07-26T02:28:39.586Z,23.00
2018-07-26T02:29:11.293Z,23.10
2018-07-26T02:29:43.046Z,23.00
2018-07-26T02:30:14.751Z,23.10
2018-07-26T02:30:46.462Z,23.10
2018-07-26T02:31:18.178Z,23.10
2018-07-26T02:31:49.878Z,23.10
2018-07-26T02:32:21.586Z,23.00
2018-07-26T02:32:53.312Z,23.00
2018-07-26T02:33:25.063Z,23.10
2018-07-26T02:33:56.761Z,23.20
2018-07-26T02:34:28.472Z,23.20
2018-07-26T02:35:00.192Z,23.20
2018-07-26T02:35:31.893Z,23.20
2018-07-26T02:36:03.597Z,23.20
2018-07-26T02:36:35.315Z,23.30
2018-07-26T02:37:07.035Z,23.30
2018-07-26T02:37:38.737Z,23.30
2018-07-26T02:38:10.443Z,23.20
2018-07-26T02:38:42.144Z,23.30
2018-07-26T02:39:13.903Z,23.30
2018-07-26T02:39:45.594Z,23.30
2018-07-26T02:40:17.321Z,23.40
2018-07-26T02:40:49.028Z,23.40
2018-07-26T02:41:20.887Z,23.30
2018-07-26T02:41:52.593Z,23.40
2018-07-26T02:42:24.336Z,23.30
2018-07-26T02:42:56.031Z,23.20
2018-07-26T02:43:27.778Z,23.10
2018-07-26T02:43:59.489Z,23.00
2018-07-26T02:44:31.209Z,22.90
2018-07-26T02:45:02.926Z,22.80
2018-07-26T02:45:34.636Z,22.80
2018-07-26T02:46:06.401Z,22.70
2018-07-26T02:46:38.121Z,22.70
2018-07-26T02:47:09.824Z,22.70
2018-07-26T02:47:41.547Z,22.70
2018-07-26T02:48:13.275Z,22.70
2018-07-26T02:48:45.100Z,22.70
2018-07-26T02:49:16.800Z,22.80
2018-07-26T02:49:48.514Z,22.80
2018-07-26T02:50:20.295Z,22.90
2018-07-26T02:50:52.010Z,23.00
2018-07-26T02:51:23.723Z,23.10
2018-07-26T02:51:55.433Z,23.20
2018-07-26T02:52:27.157Z,23.20
2018-07-26T02:52:58.922Z,23.10
2018-07-26T02:53:30.637Z,23.00
2018-07-26T02:54:02.398Z,22.90
2018-07-26T02:54:34.143Z,22.80
2018-07-26T02:55:05.850Z,22.80
2018-07-26T02:55:37.571Z,22.70
2018-07-26T02:56:09.299Z,22.60
2018-07-26T02:56:41.034Z,22.50
2018-07-26T02:57:12.760Z,22.40
2018-07-26T02:57:44.486Z,22.40
2018-07-26T02:58:16.212Z,22.30
2018-07-26T02:58:47.976Z,22.30
2018-07-26T02:59:19.693Z,22.30
2018-07-26T02:59:51.396Z,22.20
2018-07-26T03:00:23.129Z,22.20
2018-07-26T03:00:54.850Z,22.20
2018-07-26T03:01:26.548Z,22.30
2018-07-26T03:01:58.267Z,22.30
2018-07-26T03:02:30.004Z,22.30
2018-07-26T03:03:01.719Z,22.30
2018-07-26T03:03:33.444Z,22.30
2018-07-26T03:04:05.160Z,22.30
2018-07-26T03:04:36.901Z,22.40
2018-07-26T03:05:08.638Z,22.50
2018-07-26T03:05:40.422Z,22.60
2018-07-26T03:06:12.150Z,22.80
2018-07-26T03:06:43.864Z,22.80
2018-07-26T03:07:15.636Z,22.80
2018-07-26T03:07:47.303Z,22.80
2018-07-26T03:08:19.018Z,22.80
2018-07-26T03:08:50.746Z,22.80
2018-07-26T03:09:22.483Z,22.80
2018-07-26T03:09:54.215Z,22.70
2018-07-26T03:10:25.931Z,22.60
2018-07-26T03:10:57.628Z,22.50
2018-07-26T03:11:29.353Z,22.40
2018-07-26T03:12:01.066Z,22.40
2018-07-26T03:12:32.774Z,22.40
2018-07-26T03:13:04.571Z,22.30
2018-07-26T03:13:36.281Z,22.30
2018-07-26T03:14:08.021Z,22.30
2018-07-26T03:14:39.719Z,22.40
2018-07-26T03:15:11.434Z,22.50
2018-07-26T03:15:43.152Z,22.50
2018-07-26T03:16:14.849Z,22.50
2018-07-26T03:16:46.593Z,22.50
2018-07-26T03:17:18.311Z,22.60
2018-07-26T03:17:50.052Z,22.50
2018-07-26T03:18:21.797Z,22.50
2018-07-26T03:18:53.502Z,22.40
2018-07-26T03:19:25.202Z,22.40
2018-07-26T03:19:56.912Z,22.40
2018-07-26T03:20:28.633Z,22.50
2018-07-26T03:21:00.393Z,22.50
2018-07-26T03:21:32.067Z,22.40
2018-07-26T03:22:03.782Z,22.50
2018-07-26T03:22:35.494Z,22.50
2018-07-26T03:23:07.213Z,22.60
2018-07-26T03:23:38.966Z,22.60
2018-07-26T03:24:10.687Z,22.60
2018-07-26T03:24:42.423Z,22.60
2018-07-26T03:25:14.142Z,22.60
2018-07-26T03:25:45.872Z,22.50
2018-07-26T03:26:17.573Z,22.50
2018-07-26T03:26:49.298Z,22.50
2018-07-26T03:27:21.032Z,22.50
2018-07-26T03:27:52.727Z,22.60
2018-07-26T03:28:24.455Z,22.60
2018-07-26T03:29:28.200Z,22.80
2018-07-26T03:29:59.922Z,22.80
2018-07-26T03:30:31.685Z,22.90
2018-07-26T03:31:03.393Z,23.00
2018-07-26T03:31:35.097Z,22.90
2018-07-26T03:32:06.798Z,22.80
2018-07-26T03:32:38.508Z,22.90
2018-07-26T03:33:10.241Z,22.90
2018-07-26T03:33:41.941Z,22.90
2018-07-26T03:34:13.698Z,22.80
2018-07-26T03:34:45.411Z,22.80
2018-07-26T03:35:17.145Z,22.80
2018-07-26T03:35:48.859Z,22.80
2018-07-26T03:36:20.570Z,22.90
2018-07-26T03:36:52.278Z,22.90
2018-07-26T03:37:24.001Z,23.00
2018-07-26T03:37:55.706Z,23.00
2018-07-26T03:38:27.461Z,23.00
2018-07-26T03:38:59.176Z,23.00
2018-07-26T03:39:30.876Z,23.00
2018-07-26T03:40:34.656Z,23.10
2018-07-26T03:41:06.352Z,23.00
2018-07-26T03:41:38.071Z,22.90
2018-07-26T03:42:09.793Z,22.90
2018-07-26T03:42:41.590Z,22.90
2018-07-26T03:43:13.307Z,22.80
2018-07-26T03:43:45.039Z,22.80
2018-07-26T03:44:16.719Z,22.70
2018-07-26T03:44:48.421Z,22.70
2018-07-26T03:45:20.130Z,22.60
2018-07-26T03:45:51.853Z,22.50
2018-07-26T03:46:23.581Z,22.50
2018-07-26T03:46:55.294Z,22.50
2018-07-26T03:47:27.005Z,22.60
2018-07-26T03:47:58.709Z,22.60
2018-07-26T03:48:30.426Z,22.60
2018-07-26T03:49:02.143Z,22.60
2018-07-26T03:49:33.862Z,22.70
2018-07-26T03:50:05.583Z,22.70
2018-07-26T03:50:37.320Z,22.60
2018-07-26T03:51:09.101Z,22.60
2018-07-26T03:51:40.745Z,22.50
2018-07-26T03:52:12.454Z,22.60
2018-07-26T03:52:44.197Z,22.60
2018-07-26T03:53:15.873Z,22.50
2018-07-26T03:53:47.588Z,22.50
2018-07-26T03:54:19.303Z,22.50
2018-07-26T03:55:23.008Z,22.60
2018-07-26T03:56:26.768Z,22.50
2018-07-26T03:56:58.520Z,22.50
2018-07-26T03:57:30.255Z,22.50
2018-07-26T03:58:01.963Z,22.50
2018-07-26T03:58:33.692Z,22.40
2018-07-26T03:59:05.421Z,22.50
2018-07-26T03:59:37.161Z,22.50
2018-07-26T04:00:08.877Z,22.50
2018-07-26T04:00:40.693Z,22.50
2018-07-26T04:01:12.390Z,22.60
2018-07-26T04:01:44.112Z,22.60
2018-07-26T04:02:15.808Z,22.60
2018-07-26T04:02:47.639Z,22.60
2018-07-26T04:03:19.388Z,22.60
2018-07-26T04:03:51.066Z,22.60
2018-07-26T04:04:22.781Z,22.60
2018-07-26T04:04:54.554Z,22.60
2018-07-26T04:05:26.263Z,22.60
2018-07-26T04:05:57.965Z,22.70
2018-07-26T04:06:29.690Z,22.70
2018-07-26T04:07:01.493Z,22.70
2018-07-26T04:07:33.212Z,22.70
2018-07-26T04:08:04.954Z,22.80
2018-07-26T04:08:36.667Z,22.80
2018-07-26T04:09:08.380Z,22.80
2018-07-26T04:09:40.105Z,22.80
2018-07-26T04:10:11.821Z,22.80
2018-07-26T04:10:43.524Z,22.80
2018-07-26T04:11:15.247Z,22.90
2018-07-26T04:11:47.007Z,22.90
2018-07-26T04:12:18.714Z,22.90
2018-07-26T04:12:50.425Z,22.80
2018-07-26T04:13:22.149Z,22.80
2018-07-26T04:13:53.996Z,22.80
2018-07-26T04:14:25.661Z,22.70
2018-07-26T04:14:57.370Z,22.80
2018-07-26T04:15:29.102Z,22.80
2018-07-26T04:16:00.814Z,22.80
2018-07-26T04:16:32.549Z,22.80
2018-07-26T04:17:04.289Z,22.90
2018-07-26T04:17:36.062Z,22.80
2018-07-26T04:18:07.772Z,22.90
2018-07-26T04:18:39.541Z,22.80
2018-07-26T04:19:11.260Z,22.80
2018-07-26T04:19:43.085Z,22.80
2018-07-26T04:20:14.765Z,22.70
2018-07-26T04:20:46.469Z,22.70
2018-07-26T04:21:18.189Z,22.70
2018-07-26T04:21:49.908Z,22.70
2018-07-26T04:22:22.327Z,22.70
2018-07-26T04:22:54.014Z,22.70
2018-07-26T04:23:25.751Z,22.70
2018-07-26T04:23:57.469Z,22.60
2018-07-26T04:24:29.188Z,22.60
2018-07-26T04:25:00.897Z,22.60
2018-07-26T04:25:32.608Z,22.60
2018-07-26T04:26:04.456Z,22.60
2018-07-26T04:26:36.129Z,22.60
2018-07-26T04:27:07.834Z,22.60
2018-07-26T04:27:39.566Z,22.60
2018-07-26T04:28:11.279Z,22.60
2018-07-26T04:28:42.991Z,22.60
2018-07-26T04:29:14.791Z,22.70
2018-07-26T04:29:46.538Z,22.80
2018-07-26T04:30:18.246Z,22.80
2018-07-26T04:30:49.983Z,22.90
2018-07-26T04:31:21.683Z,22.90
2018-07-26T04:31:53.436Z,23.00
2018-07-26T04:32:25.110Z,23.10
2018-07-26T04:32:56.820Z,23.10
2018-07-26T04:33:28.651Z,23.20
2018-07-26T04:34:00.331Z,23.20
2018-07-26T04:34:32.033Z,23.20
2018-07-26T04:35:03.745Z,23.20
2018-07-26T04:35:35.454Z,23.20
2018-07-26T04:36:07.208Z,23.30
2018-07-26T04:36:38.927Z,23.30
2018-07-26T04:37:10.626Z,23.30
2018-07-26T04:37:42.349Z,23.30
2018-07-26T04:38:14.071Z,23.30
2018-07-26T04:38:45.782Z,23.40
2018-07-26T04:39:17.507Z,23.30
2018-07-26T04:39:49.201Z,23.40
2018-07-26T04:40:20.924Z,23.40
2018-07-26T04:40:52.656Z,23.40
2018-07-26T04:41:24.482Z,23.40
2018-07-26T04:41:56.228Z,23.50
2018-07-26T04:42:27.931Z,23.50
2018-07-26T04:42:59.715Z,23.50
2018-07-26T04:43:31.389Z,23.50
2018-07-26T04:44:03.114Z,23.50
2018-07-26T04:44:34.929Z,23.50
2018-07-26T04:45:06.653Z,23.50
2018-07-26T04:45:38.362Z,23.50
2018-07-26T04:46:10.097Z,23.50
2018-07-26T04:46:41.801Z,23.50
2018-07-26T04:47:13.518Z,23.60
2018-07-26T04:47:45.233Z,23.60
2018-07-26T04:48:16.956Z,23.60
2018-07-26T04:48:48.715Z,23.50
2018-07-26T04:49:20.397Z,23.60
2018-07-26T04:49:52.110Z,23.60
2018-07-26T04:50:24.011Z,23.60
2018-07-26T04:50:55.748Z,23.60
2018-07-26T04:51:27.454Z,23.60
2018-07-26T04:51:59.169Z,23.60
2018-07-26T04:52:30.912Z,23.60
2018-07-26T04:53:02.663Z,23.60
2018-07-26T04:53:34.369Z,23.60
2018-07-26T04:54:06.110Z,23.60
2018-07-26T04:54:37.844Z,23.60
2018-07-26T04:55:09.760Z,23.60
2018-07-26T04:55:41.458Z,23.60
2018-07-26T04:56:45.216Z,23.70
2018-07-26T04:57:16.943Z,23.70
2018-07-26T04:57:48.641Z,23.70
2018-07-26T04:58:20.370Z,23.70
2018-07-26T04:58:52.077Z,23.70
2018-07-26T04:59:23.842Z,23.70
2018-07-26T04:59:55.552Z,23.70
2018-07-26T05:00:27.262Z,23.70
2018-07-26T05:00:58.990Z,23.70
2018-07-26T05:01:30.694Z,23.70
2018-07-26T05:02:02.411Z,23.70
2018-07-26T05:02:34.122Z,23.70
2018-07-26T05:03:05.841Z,23.60
2018-07-26T05:03:37.557Z,23.60
2018-07-26T05:04:09.262Z,23.60
2018-07-26T05:04:40.987Z,23.60
2018-07-26T05:05:12.702Z,23.60
2018-07-26T05:05:44.414Z,23.60
2018-07-26T05:06:16.131Z,23.60
2018-07-26T05:06:47.845Z,23.60
2018-07-26T05:07:19.553Z,23.60
2018-07-26T05:07:51.262Z,23.60
2018-07-26T05:08:22.966Z,23.50
2018-07-26T05:08:54.675Z,23.50
2018-07-26T05:09:26.384Z,23.50
2018-07-26T05:09:58.116Z,23.50
2018-07-26T05:10:29.853Z,23.50
2018-07-26T05:11:01.590Z,23.50
2018-07-26T05:11:33.352Z,23.50
2018-07-26T05:12:05.082Z,23.50
2018-07-26T05:12:36.832Z,23.50
2018-07-26T05:13:08.532Z,23.50
2018-07-26T05:13:40.243Z,23.50
2018-07-26T05:14:11.970Z,23.60
2018-07-26T05:14:43.679Z,23.50
2018-07-26T05:15:15.382Z,23.50
2018-07-26T05:15:47.101Z,23.50
2018-07-26T05:16:18.809Z,23.50
2018-07-26T05:16:50.522Z,23.50
2018-07-26T05:17:22.243Z,23.50
2018-07-26T05:17:53.970Z,23.50
2018-07-26T05:18:25.749Z,23.50
2018-07-26T05:18:57.459Z,23.50
2018-07-26T05:19:29.210Z,23.60
2018-07-26T05:20:00.917Z,23.60
2018-07-26T05:20:32.663Z,23.60
2018-07-26T05:21:04.374Z,23.60
2018-07-26T05:21:36.083Z,23.60
2018-07-26T05:22:07.813Z,23.60
2018-07-26T05:22:39.512Z,23.60
2018-07-26T05:23:11.233Z,23.70
2018-07-26T05:23:42.941Z,23.70
2018-07-26T05:24:14.649Z,23.70
2018-07-26T05:24:46.367Z,23.70
2018-07-26T05:25:18.113Z,23.70
2018-07-26T05:25:49.820Z,23.70
2018-07-26T05:26:21.544Z,23.70
2018-07-26T05:26:53.239Z,23.80
2018-07-26T05:27:25.065Z,23.80
2018-07-26T05:27:56.780Z,23.80
2018-07-26T05:28:28.516Z,23.80
2018-07-26T05:29:00.207Z,23.80
2018-07-26T05:29:31.920Z,23.80
2018-07-26T05:30:03.725Z,23.90
2018-07-26T05:30:35.489Z,23.90
2018-07-26T05:31:07.230Z,23.90
2018-07-26T05:31:38.946Z,23.90
2018-07-26T05:32:10.665Z,23.90
2018-07-26T05:32:42.372Z,23.90
2018-07-26T05:33:14.073Z,23.90
2018-07-26T05:33:45.782Z,24.00
2018-07-26T05:34:17.497Z,24.00
2018-07-26T05:34:49.205Z,24.00
2018-07-26T05:35:20.914Z,24.10
2018-07-26T05:35:52.657Z,24.10
2018-07-26T05:36:24.398Z,24.00
2018-07-26T05:36:56.122Z,24.10
2018-07-26T05:37:27.835Z,24.00
2018-07-26T05:37:59.648Z,24.00
2018-07-26T05:38:31.371Z,24.00
2018-07-26T05:39:03.077Z,24.00
2018-07-26T05:39:35.085Z,24.00
2018-07-26T05:40:06.851Z,23.90
2018-07-26T05:40:38.564Z,23.90
2018-07-26T05:41:10.288Z,23.80
2018-07-26T05:41:42.269Z,23.80
2018-07-26T05:42:13.978Z,23.80
2018-07-26T05:42:45.711Z,23.80
2018-07-26T05:43:17.478Z,23.80
2018-07-26T05:43:49.141Z,23.70
2018-07-26T05:44:21.048Z,23.70
2018-07-26T05:44:52.754Z,23.70
2018-07-26T05:45:24.482Z,23.70
2018-07-26T05:45:56.226Z,23.70
2018-07-26T05:46:27.954Z,23.70
2018-07-26T05:46:59.685Z,23.70
2018-07-26T05:47:31.393Z,23.70
2018-07-26T05:48:03.111Z,23.70
2018-07-26T05:48:34.825Z,23.70
2018-07-26T05:49:06.542Z,23.70
2018-07-26T05:49:38.269Z,23.70
2018-07-26T05:50:09.977Z,23.70
2018-07-26T05:50:41.686Z,23.70
2018-07-26T05:51:13.432Z,23.70
2018-07-26T05:51:45.176Z,23.80
2018-07-26T05:52:16.950Z,23.80
2018-07-26T05:52:48.685Z,23.80
2018-07-26T05:53:20.446Z,23.80
2018-07-26T05:53:52.103Z,23.80
2018-07-26T05:54:23.831Z,23.70
2018-07-26T05:54:55.551Z,23.70
2018-07-26T05:55:27.267Z,23.80
2018-07-26T05:55:58.973Z,23.80
2018-07-26T05:56:30.692Z,23.80
2018-07-26T05:57:02.401Z,23.90
2018-07-26T05:57:34.115Z,23.90
2018-07-26T05:58:05.832Z,23.90
2018-07-26T05:58:37.555Z,23.90
2018-07-26T05:59:09.309Z,24.00
2018-07-26T05:59:41.021Z,24.00
2018-07-26T06:00:12.760Z,24.00
2018-07-26T06:00:44.452Z,24.00
2018-07-26T06:01:16.181Z,24.00
2018-07-26T06:01:47.888Z,24.00
2018-07-26T06:02:19.612Z,24.10
2018-07-26T06:02:51.322Z,24.10
2018-07-26T06:03:23.076Z,24.00
2018-07-26T06:03:54.796Z,24.00
2018-07-26T06:04:26.513Z,23.90
2018-07-26T06:04:58.258Z,23.90
2018-07-26T06:05:29.973Z,23.90
2018-07-26T06:06:01.688Z,23.90
2018-07-26T06:06:33.417Z,23.90
2018-07-26T06:07:05.169Z,23.80
2018-07-26T06:07:36.889Z,23.80
2018-07-26T06:08:08.621Z,23.80
2018-07-26T06:08:40.382Z,23.90
2018-07-26T06:09:12.108Z,23.90
2018-07-26T06:09:43.891Z,23.90
2018-07-26T06:10:15.595Z,23.90
2018-07-26T06:10:47.272Z,23.90
2018-07-26T06:11:18.995Z,23.90
2018-07-26T06:11:50.775Z,23.90
2018-07-26T06:12:22.495Z,23.90
2018-07-26T06:12:54.211Z,23.90
2018-07-26T06:13:25.934Z,23.80
2018-07-26T06:13:57.653Z,23.90
2018-07-26T06:14:29.364Z,23.80
2018-07-26T06:15:01.076Z,23.80
2018-07-26T06:15:32.806Z,23.80
2018-07-26T06:16:04.513Z,23.80
2018-07-26T06:16:36.230Z,23.80
2018-07-26T06:17:07.956Z,23.80
2018-07-26T06:17:39.660Z,23.90
2018-07-26T06:18:11.367Z,23.90
2018-07-26T06:18:43.071Z,23.80
2018-07-26T06:19:14.787Z,23.80
2018-07-26T06:19:46.500Z,23.80
2018-07-26T06:20:18.212Z,23.80
2018-07-26T06:20:49.912Z,23.80
2018-07-26T06:21:21.660Z,23.70
2018-07-26T06:21:53.380Z,23.70
2018-07-26T06:22:25.084Z,23.70
2018-07-26T06:22:56.797Z,23.70
2018-07-26T06:23:28.514Z,23.80
2018-07-26T06:24:00.245Z,23.80
2018-07-26T06:24:31.951Z,23.80
2018-07-26T06:25:03.668Z,23.80
2018-07-26T06:25:35.407Z,23.80
2018-07-26T06:26:07.115Z,23.80
2018-07-26T06:26:38.831Z,23.90
2018-07-26T06:27:10.529Z,23.90
2018-07-26T06:27:42.254Z,23.90
2018-07-26T06:28:14.015Z,23.90
2018-07-26T06:28:45.685Z,24.00
2018-07-26T06:29:17.406Z,23.90
2018-07-26T06:29:49.127Z,23.90
2018-07-26T06:30:20.829Z,23.90
2018-07-26T06:30:52.544Z,23.90
2018-07-26T06:31:24.258Z,23.90
2018-07-26T06:31:55.970Z,23.90
2018-07-26T06:32:27.684Z,23.90
2018-07-26T06:32:59.393Z,23.90
2018-07-26T06:33:31.165Z,24.00
2018-07-26T06:34:02.819Z,24.00
2018-07-26T06:34:34.590Z,24.00
2018-07-26T06:35:06.306Z,24.10
2018-07-26T06:35:38.010Z,24.10
2018-07-26T06:36:09.782Z,24.10
2018-07-26T06:36:41.494Z,24.00
2018-07-26T06:37:13.198Z,24.00
2018-07-26T06:37:44.914Z,24.00
2018-07-26T06:38:16.625Z,24.00
2018-07-26T06:38:48.334Z,24.00
2018-07-26T06:39:20.036Z,24.00
2018-07-26T06:39:51.793Z,23.90
2018-07-26T06:40:23.522Z,23.90
2018-07-26T06:40:55.240Z,23.90
2018-07-26T06:41:26.946Z,23.90
2018-07-26T06:41:58.650Z,23.90
2018-07-26T06:42:30.369Z,23.90
2018-07-26T06:43:02.103Z,23.90
2018-07-26T06:43:33.818Z,23.90
2018-07-26T06:44:05.534Z,23.90
2018-07-26T06:44:37.243Z,23.90
2018-07-26T06:45:08.986Z,23.90
2018-07-26T06:45:40.693Z,23.90
2018-07-26T06:46:12.399Z,23.90
2018-07-26T06:46:44.123Z,23.80
2018-07-26T06:47:15.919Z,23.80
2018-07-26T06:47:47.588Z,23.80
2018-07-26T06:48:19.317Z,23.80
2018-07-26T06:48:51.033Z,23.80
2018-07-26T06:49:22.736Z,23.80
2018-07-26T06:49:54.454Z,23.90
2018-07-26T06:50:26.167Z,23.80
2018-07-26T06:50:57.885Z,23.80
2018-07-26T06:51:29.597Z,23.80